Terminal Aerodrome Forecast
Issued by NWS

Home | Current Version | Previous Version | Text Only | Print | Product List | Glossary On
Versions: 1 2 3 4 5 6 7 8 9 10 11 12 13 14 15 16 17 18
773
FTUS43 KGRB 241746 AAA
TAFMTW
TAF AMD
KMTW 241746Z 2418/2518 02007KT P6SM VCSH OVC018 WS020/26035KT
     FM242000 03012KT P6SM VCSH OVC012
     FM250000 03012KT 2SM RA OVC008
     FM250700 03013G22KT 4SM RA OVC005
     FM251300 05014G23KT 4SM -RA OVC005=

USA.gov is the U.S. government's official web portal to all federal, state and local government web resources and services.